sensor_id;sensor_type;location;lat;lon;timestamp;P1;durP1;ratioP1;P2;durP2;ratioP2
74233;SDS011;62591;55.764;37.718;2023-04-06T00:00:43;7.82;;;5.07;;
74233;SDS011;62591;55.764;37.718;2023-04-06T00:03:12;7.60;;;5.00;;
74233;SDS011;62591;55.764;37.718;2023-04-06T00:05:42;7.90;;;5.07;;
74233;SDS011;62591;55.764;37.718;2023-04-06T00:08:11;7.30;;;4.85;;
74233;SDS011;62591;55.764;37.718;2023-04-06T00:10:41;8.25;;;5.13;;
74233;SDS011;62591;55.764;37.718;2023-04-06T00:13:09;10.00;;;5.07;;
74233;SDS011;62591;55.764;37.718;2023-04-06T00:15:38;7.90;;;4.88;;
74233;SDS011;62591;55.764;37.718;2023-04-06T00:18:07;7.78;;;5.18;;
74233;SDS011;62591;55.764;37.718;2023-04-06T00:20:35;7.47;;;5.05;;
74233;SDS011;62591;55.764;37.718;2023-04-06T00:23:05;8.57;;;4.60;;
74233;SDS011;62591;55.764;37.718;2023-04-06T00:25:33;7.57;;;5.03;;
74233;SDS011;62591;55.764;37.718;2023-04-06T00:28:02;9.77;;;5.38;;
74233;SDS011;62591;55.764;37.718;2023-04-06T00:30:31;9.48;;;5.07;;
74233;SDS011;62591;55.764;37.718;2023-04-06T00:33:00;8.90;;;5.22;;
74233;SDS011;62591;55.764;37.718;2023-04-06T00:35:30;7.40;;;4.35;;
74233;SDS011;62591;55.764;37.718;2023-04-06T00:37:59;7.50;;;5.63;;
74233;SDS011;62591;55.764;37.718;2023-04-06T00:40:29;8.43;;;5.18;;
74233;SDS011;62591;55.764;37.718;2023-04-06T00:42:58;10.32;;;5.07;;
74233;SDS011;62591;55.764;37.718;2023-04-06T00:45:27;9.50;;;5.65;;
74233;SDS011;62591;55.764;37.718;2023-04-06T00:47:56;10.48;;;5.55;;
74233;SDS011;62591;55.764;37.718;2023-04-06T00:50:25;7.72;;;5.10;;
74233;SDS011;62591;55.764;37.718;2023-04-06T00:52:53;9.98;;;6.00;;
74233;SDS011;62591;55.764;37.718;2023-04-06T00:55:26;9.07;;;5.85;;
74233;SDS011;62591;55.764;37.718;2023-04-06T00:57:57;8.45;;;4.80;;
74233;SDS011;62591;55.764;37.718;2023-04-06T01:00:31;7.55;;;5.70;;
74233;SDS011;62591;55.764;37.718;2023-04-06T01:03:01;7.45;;;4.55;;
74233;SDS011;62591;55.764;37.718;2023-04-06T01:05:39;8.38;;;5.57;;
74233;SDS011;62591;55.764;37.718;2023-04-06T01:08:18;8.35;;;4.80;;
74233;SDS011;62591;55.764;37.718;2023-04-06T01:10:51;7.75;;;5.43;;
74233;SDS011;62591;55.764;37.718;2023-04-06T01:13:25;6.97;;;5.20;;
74233;SDS011;62591;55.764;37.718;2023-04-06T01:15:58;11.13;;;6.00;;
74233;SDS011;62591;55.764;37.718;2023-04-06T01:18:37;10.13;;;6.03;;
74233;SDS011;62591;55.764;37.718;2023-04-06T01:21:16;8.35;;;4.93;;
74233;SDS011;62591;55.764;37.718;2023-04-06T01:24:02;9.20;;;5.63;;
74233;SDS011;62591;55.764;37.718;2023-04-06T01:26:43;8.82;;;6.32;;
74233;SDS011;62591;55.764;37.718;2023-04-06T01:29:12;8.75;;;5.32;;
74233;SDS011;62591;55.764;37.718;2023-04-06T01:31:42;7.43;;;5.38;;
74233;SDS011;62591;55.764;37.718;2023-04-06T01:34:11;12.13;;;6.43;;
74233;SDS011;62591;55.764;37.718;2023-04-06T01:36:40;9.75;;;5.10;;
74233;SDS011;62591;55.764;37.718;2023-04-06T01:39:22;7.38;;;5.07;;
74233;SDS011;62591;55.764;37.718;2023-04-06T01:41:51;8.93;;;5.80;;
74233;SDS011;62591;55.764;37.718;2023-04-06T01:44:20;8.73;;;6.38;;
74233;SDS011;62591;55.764;37.718;2023-04-06T01:47:00;8.63;;;5.20;;
74233;SDS011;62591;55.764;37.718;2023-04-06T01:49:28;6.97;;;5.07;;
74233;SDS011;62591;55.764;37.718;2023-04-06T01:51:58;6.55;;;4.95;;
74233;SDS011;62591;55.764;37.718;2023-04-06T01:54:28;8.10;;;5.70;;
74233;SDS011;62591;55.764;37.718;2023-04-06T01:57:19;9.52;;;5.63;;
74233;SDS011;62591;55.764;37.718;2023-04-06T01:59:54;8.27;;;6.10;;
74233;SDS011;62591;55.764;37.718;2023-04-06T02:02:47;9.82;;;5.65;;
74233;SDS011;62591;55.764;37.718;2023-04-06T02:05:21;10.55;;;6.25;;
74233;SDS011;62591;55.764;37.718;2023-04-06T02:07:52;8.98;;;5.57;;
74233;SDS011;62591;55.764;37.718;2023-04-06T02:10:30;8.65;;;5.43;;
74233;SDS011;62591;55.764;37.718;2023-04-06T02:13:05;8.40;;;5.55;;
74233;SDS011;62591;55.764;37.718;2023-04-06T02:15:34;13.55;;;6.75;;
74233;SDS011;62591;55.764;37.718;2023-04-06T02:18:03;7.80;;;5.20;;
74233;SDS011;62591;55.764;37.718;2023-04-06T02:20:32;10.27;;;5.85;;
74233;SDS011;62591;55.764;37.718;2023-04-06T02:23:01;7.35;;;5.18;;
74233;SDS011;62591;55.764;37.718;2023-04-06T02:25:30;8.05;;;5.07;;
74233;SDS011;62591;55.764;37.718;2023-04-06T02:28:01;9.20;;;6.28;;
74233;SDS011;62591;55.764;37.718;2023-04-06T02:30:29;7.97;;;4.60;;
74233;SDS011;62591;55.764;37.718;2023-04-06T02:32:59;12.48;;;5.97;;
74233;SDS011;62591;55.764;37.718;2023-04-06T02:35:35;11.40;;;5.15;;
74233;SDS011;62591;55.764;37.718;2023-04-06T02:38:04;10.70;;;6.10;;
74233;SDS011;62591;55.764;37.718;2023-04-06T02:40:34;10.38;;;5.65;;
74233;SDS011;62591;55.764;37.718;2023-04-06T02:43:23;7.93;;;5.03;;
74233;SDS011;62591;55.764;37.718;2023-04-06T02:46:01;9.40;;;5.35;;
74233;SDS011;62591;55.764;37.718;2023-04-06T02:48:33;10.75;;;5.40;;
74233;SDS011;62591;55.764;37.718;2023-04-06T02:51:05;8.85;;;5.40;;
74233;SDS011;62591;55.764;37.718;2023-04-06T02:53:34;9.40;;;6.93;;
74233;SDS011;62591;55.764;37.718;2023-04-06T02:56:04;8.55;;;5.40;;
74233;SDS011;62591;55.764;37.718;2023-04-06T02:58:43;9.15;;;5.45;;
74233;SDS011;62591;55.764;37.718;2023-04-06T03:01:12;7.78;;;5.65;;
74233;SDS011;62591;55.764;37.718;2023-04-06T03:03:42;10.68;;;6.93;;
74233;SDS011;62591;55.764;37.718;2023-04-06T03:06:18;10.40;;;6.28;;
74233;SDS011;62591;55.764;37.718;2023-04-06T03:08:51;8.13;;;5.13;;
74233;SDS011;62591;55.764;37.718;2023-04-06T03:11:21;8.55;;;5.03;;
74233;SDS011;62591;55.764;37.718;2023-04-06T03:13:51;11.93;;;7.90;;
74233;SDS011;62591;55.764;37.718;2023-04-06T03:16:20;7.38;;;4.88;;
74233;SDS011;62591;55.764;37.718;2023-04-06T03:18:49;6.93;;;4.38;;
74233;SDS011;62591;55.764;37.718;2023-04-06T03:21:18;9.02;;;5.78;;
74233;SDS011;62591;55.764;37.718;2023-04-06T03:23:51;7.03;;;4.75;;
74233;SDS011;62591;55.764;37.718;2023-04-06T03:26:19;8.23;;;4.68;;
74233;SDS011;62591;55.764;37.718;2023-04-06T03:28:51;7.97;;;5.10;;
74233;SDS011;62591;55.764;37.718;2023-04-06T03:31:25;7.50;;;5.30;;
74233;SDS011;62591;55.764;37.718;2023-04-06T03:36:31;6.43;;;4.60;;
74233;SDS011;62591;55.764;37.718;2023-04-06T03:39:03;8.15;;;5.20;;
74233;SDS011;62591;55.764;37.718;2023-04-06T03:41:36;7.78;;;4.75;;
74233;SDS011;62591;55.764;37.718;2023-04-06T03:47:03;5.75;;;3.70;;
74233;SDS011;62591;55.764;37.718;2023-04-06T03:49:31;6.47;;;4.68;;
74233;SDS011;62591;55.764;37.718;2023-04-06T03:52:00;7.85;;;4.90;;
74233;SDS011;62591;55.764;37.718;2023-04-06T03:54:29;7.93;;;4.45;;
74233;SDS011;62591;55.764;37.718;2023-04-06T03:56:59;9.68;;;4.90;;
74233;SDS011;62591;55.764;37.718;2023-04-06T03:59:28;6.43;;;4.47;;
74233;SDS011;62591;55.764;37.718;2023-04-06T04:01:57;7.07;;;4.78;;
74233;SDS011;62591;55.764;37.718;2023-04-06T04:04:25;6.75;;;4.63;;
74233;SDS011;62591;55.764;37.718;2023-04-06T04:06:54;8.48;;;4.10;;
74233;SDS011;62591;55.764;37.718;2023-04-06T04:09:22;10.80;;;4.50;;
74233;SDS011;62591;55.764;37.718;2023-04-06T04:11:54;7.93;;;4.78;;
74233;SDS011;62591;55.764;37.718;2023-04-06T04:14:24;8.20;;;5.07;;
74233;SDS011;62591;55.764;37.718;2023-04-06T04:16:53;8.23;;;4.82;;
74233;SDS011;62591;55.764;37.718;2023-04-06T04:19:22;8.23;;;4.28;;
74233;SDS011;62591;55.764;37.718;2023-04-06T04:21:51;6.38;;;4.28;;
74233;SDS011;62591;55.764;37.718;2023-04-06T04:24:28;6.05;;;3.90;;
74233;SDS011;62591;55.764;37.718;2023-04-06T04:26:57;7.38;;;4.80;;
74233;SDS011;62591;55.764;37.718;2023-04-06T04:29:27;7.55;;;4.07;;
74233;SDS011;62591;55.764;37.718;2023-04-06T04:32:01;8.45;;;4.93;;
74233;SDS011;62591;55.764;37.718;2023-04-06T04:34:30;7.32;;;4.70;;
74233;SDS011;62591;55.764;37.718;2023-04-06T04:36:59;9.63;;;4.30;;
74233;SDS011;62591;55.764;37.718;2023-04-06T04:39:42;9.57;;;4.60;;
74233;SDS011;62591;55.764;37.718;2023-04-06T04:42:11;8.95;;;4.07;;
74233;SDS011;62591;55.764;37.718;2023-04-06T04:44:47;6.68;;;4.07;;
74233;SDS011;62591;55.764;37.718;2023-04-06T04:47:26;7.45;;;3.83;;
74233;SDS011;62591;55.764;37.718;2023-04-06T04:49:55;6.55;;;4.03;;
74233;SDS011;62591;55.764;37.718;2023-04-06T04:52:25;10.48;;;4.03;;
74233;SDS011;62591;55.764;37.718;2023-04-06T04:54:59;8.35;;;4.18;;
74233;SDS011;62591;55.764;37.718;2023-04-06T04:57:29;9.63;;;4.40;;
74233;SDS011;62591;55.764;37.718;2023-04-06T04:59:59;6.78;;;4.10;;
74233;SDS011;62591;55.764;37.718;2023-04-06T05:02:29;9.98;;;4.70;;
74233;SDS011;62591;55.764;37.718;2023-04-06T05:05:29;6.90;;;3.80;;
74233;SDS011;62591;55.764;37.718;2023-04-06T05:08:02;9.85;;;3.90;;
74233;SDS011;62591;55.764;37.718;2023-04-06T05:10:44;7.78;;;4.18;;
74233;SDS011;62591;55.764;37.718;2023-04-06T05:13:13;9.48;;;4.00;;
74233;SDS011;62591;55.764;37.718;2023-04-06T05:15:45;8.25;;;4.25;;
74233;SDS011;62591;55.764;37.718;2023-04-06T05:18:25;8.75;;;3.97;;
74233;SDS011;62591;55.764;37.718;2023-04-06T05:20:55;7.20;;;3.60;;
74233;SDS011;62591;55.764;37.718;2023-04-06T05:23:32;5.22;;;3.20;;
74233;SDS011;62591;55.764;37.718;2023-04-06T05:26:02;5.78;;;3.30;;
74233;SDS011;62591;55.764;37.718;2023-04-06T05:28:31;7.10;;;3.67;;
74233;SDS011;62591;55.764;37.718;2023-04-06T05:31:03;12.35;;;3.90;;
74233;SDS011;62591;55.764;37.718;2023-04-06T05:33:42;8.98;;;4.10;;
74233;SDS011;62591;55.764;37.718;2023-04-06T05:36:14;7.00;;;3.70;;
74233;SDS011;62591;55.764;37.718;2023-04-06T05:38:48;8.73;;;4.43;;
74233;SDS011;62591;55.764;37.718;2023-04-06T05:41:34;9.18;;;4.57;;
74233;SDS011;62591;55.764;37.718;2023-04-06T05:44:03;10.70;;;4.63;;
74233;SDS011;62591;55.764;37.718;2023-04-06T05:46:34;5.57;;;3.97;;
74233;SDS011;62591;55.764;37.718;2023-04-06T05:49:04;6.13;;;3.78;;
74233;SDS011;62591;55.764;37.718;2023-04-06T05:51:34;7.43;;;3.80;;
74233;SDS011;62591;55.764;37.718;2023-04-06T05:54:03;7.03;;;3.00;;
74233;SDS011;62591;55.764;37.718;2023-04-06T05:56:33;8.88;;;4.18;;
74233;SDS011;62591;55.764;37.718;2023-04-06T05:59:02;7.43;;;4.10;;
74233;SDS011;62591;55.764;37.718;2023-04-06T06:01:31;7.63;;;3.88;;
74233;SDS011;62591;55.764;37.718;2023-04-06T06:04:04;12.45;;;4.32;;
74233;SDS011;62591;55.764;37.718;2023-04-06T06:06:36;6.65;;;3.28;;
74233;SDS011;62591;55.764;37.718;2023-04-06T06:09:12;4.50;;;2.50;;
74233;SDS011;62591;55.764;37.718;2023-04-06T06:11:50;6.45;;;3.90;;
74233;SDS011;62591;55.764;37.718;2023-04-06T06:14:22;10.80;;;4.28;;
74233;SDS011;62591;55.764;37.718;2023-04-06T06:16:52;8.00;;;3.17;;
74233;SDS011;62591;55.764;37.718;2023-04-06T06:19:22;10.32;;;4.50;;
74233;SDS011;62591;55.764;37.718;2023-04-06T06:21:55;6.35;;;4.00;;
74233;SDS011;62591;55.764;37.718;2023-04-06T06:24:23;8.10;;;3.72;;
74233;SDS011;62591;55.764;37.718;2023-04-06T06:26:52;12.50;;;3.72;;
74233;SDS011;62591;55.764;37.718;2023-04-06T06:29:25;4.90;;;3.20;;
74233;SDS011;62591;55.764;37.718;2023-04-06T06:31:55;10.75;;;4.80;;
74233;SDS011;62591;55.764;37.718;2023-04-06T06:34:24;6.25;;;3.55;;
74233;SDS011;62591;55.764;37.718;2023-04-06T06:36:55;10.73;;;4.30;;
74233;SDS011;62591;55.764;37.718;2023-04-06T06:39:25;7.45;;;3.78;;
74233;SDS011;62591;55.764;37.718;2023-04-06T06:41:53;12.65;;;3.28;;
74233;SDS011;62591;55.764;37.718;2023-04-06T06:44:42;6.78;;;3.85;;
74233;SDS011;62591;55.764;37.718;2023-04-06T06:47:13;10.25;;;4.22;;
74233;SDS011;62591;55.764;37.718;2023-04-06T06:49:45;8.93;;;3.80;;
74233;SDS011;62591;55.764;37.718;2023-04-06T06:52:13;7.10;;;3.80;;
74233;SDS011;62591;55.764;37.718;2023-04-06T06:54:45;7.85;;;3.03;;
74233;SDS011;62591;55.764;37.718;2023-04-06T06:57:13;13.10;;;4.50;;
74233;SDS011;62591;55.764;37.718;2023-04-06T06:59:42;6.22;;;3.88;;
74233;SDS011;62591;55.764;37.718;2023-04-06T07:02:13;10.85;;;3.63;;
74233;SDS011;62591;55.764;37.718;2023-04-06T07:04:41;21.90;;;9.60;;
74233;SDS011;62591;55.764;37.718;2023-04-06T07:07:10;6.40;;;4.05;;
74233;SDS011;62591;55.764;37.718;2023-04-06T07:09:39;15.10;;;4.75;;
74233;SDS011;62591;55.764;37.718;2023-04-06T07:12:08;9.98;;;4.72;;
74233;SDS011;62591;55.764;37.718;2023-04-06T07:14:36;16.08;;;4.68;;
74233;SDS011;62591;55.764;37.718;2023-04-06T07:17:05;9.27;;;3.80;;
74233;SDS011;62591;55.764;37.718;2023-04-06T07:19:36;7.03;;;3.95;;
74233;SDS011;62591;55.764;37.718;2023-04-06T07:22:05;8.50;;;3.85;;
74233;SDS011;62591;55.764;37.718;2023-04-06T07:24:34;12.70;;;3.53;;
74233;SDS011;62591;55.764;37.718;2023-04-06T07:27:02;10.23;;;3.47;;
74233;SDS011;62591;55.764;37.718;2023-04-06T07:29:31;10.70;;;3.42;;
74233;SDS011;62591;55.764;37.718;2023-04-06T07:32:00;5.35;;;3.63;;
74233;SDS011;62591;55.764;37.718;2023-04-06T07:34:31;7.30;;;3.63;;
74233;SDS011;62591;55.764;37.718;2023-04-06T07:37:02;8.98;;;3.83;;
74233;SDS011;62591;55.764;37.718;2023-04-06T07:39:31;6.30;;;3.38;;
74233;SDS011;62591;55.764;37.718;2023-04-06T07:42:00;10.80;;;3.88;;
74233;SDS011;62591;55.764;37.718;2023-04-06T07:44:29;10.80;;;3.63;;
74233;SDS011;62591;55.764;37.718;2023-04-06T07:47:00;11.10;;;3.58;;
74233;SDS011;62591;55.764;37.718;2023-04-06T07:49:30;11.40;;;3.35;;
74233;SDS011;62591;55.764;37.718;2023-04-06T07:52:02;10.23;;;3.55;;
74233;SDS011;62591;55.764;37.718;2023-04-06T07:54:32;17.13;;;4.25;;
74233;SDS011;62591;55.764;37.718;2023-04-06T07:57:01;12.15;;;4.40;;
74233;SDS011;62591;55.764;37.718;2023-04-06T07:59:29;10.00;;;3.25;;
74233;SDS011;62591;55.764;37.718;2023-04-06T08:01:58;16.55;;;3.15;;
74233;SDS011;62591;55.764;37.718;2023-04-06T08:04:27;11.38;;;3.10;;
74233;SDS011;62591;55.764;37.718;2023-04-06T08:06:55;12.35;;;3.22;;
74233;SDS011;62591;55.764;37.718;2023-04-06T08:09:32;7.25;;;3.00;;
74233;SDS011;62591;55.764;37.718;2023-04-06T08:12:00;13.43;;;3.88;;
74233;SDS011;62591;55.764;37.718;2023-04-06T08:14:29;7.63;;;2.50;;
74233;SDS011;62591;55.764;37.718;2023-04-06T08:16:57;8.18;;;2.67;;
74233;SDS011;62591;55.764;37.718;2023-04-06T08:19:26;16.73;;;3.55;;
74233;SDS011;62591;55.764;37.718;2023-04-06T08:21:55;8.73;;;3.08;;
74233;SDS011;62591;55.764;37.718;2023-04-06T08:24:23;5.72;;;3.22;;
74233;SDS011;62591;55.764;37.718;2023-04-06T08:26:53;8.88;;;2.85;;
74233;SDS011;62591;55.764;37.718;2023-04-06T08:29:22;9.25;;;3.35;;
74233;SDS011;62591;55.764;37.718;2023-04-06T08:31:50;9.38;;;3.53;;
74233;SDS011;62591;55.764;37.718;2023-04-06T08:34:20;8.48;;;2.50;;
74233;SDS011;62591;55.764;37.718;2023-04-06T08:36:49;9.10;;;2.97;;
74233;SDS011;62591;55.764;37.718;2023-04-06T08:39:18;8.50;;;2.72;;
74233;SDS011;62591;55.764;37.718;2023-04-06T08:41:53;6.78;;;2.78;;
74233;SDS011;62591;55.764;37.718;2023-04-06T08:44:25;10.70;;;2.72;;
74233;SDS011;62591;55.764;37.718;2023-04-06T08:46:54;11.57;;;2.92;;
74233;SDS011;62591;55.764;37.718;2023-04-06T08:49:23;7.00;;;2.92;;
74233;SDS011;62591;55.764;37.718;2023-04-06T08:51:52;9.38;;;3.53;;
74233;SDS011;62591;55.764;37.718;2023-04-06T08:54:20;11.27;;;3.17;;
74233;SDS011;62591;55.764;37.718;2023-04-06T08:56:49;18.58;;;3.42;;
74233;SDS011;62591;55.764;37.718;2023-04-06T08:59:19;10.98;;;3.45;;
74233;SDS011;62591;55.764;37.718;2023-04-06T09:01:48;10.70;;;2.70;;
74233;SDS011;62591;55.764;37.718;2023-04-06T09:04:17;6.45;;;2.30;;
74233;SDS011;62591;55.764;37.718;2023-04-06T09:06:46;8.52;;;3.08;;
74233;SDS011;62591;55.764;37.718;2023-04-06T09:09:16;5.57;;;3.00;;
74233;SDS011;62591;55.764;37.718;2023-04-06T09:11:47;15.52;;;2.97;;
74233;SDS011;62591;55.764;37.718;2023-04-06T09:14:17;5.55;;;2.63;;
74233;SDS011;62591;55.764;37.718;2023-04-06T09:17:02;10.52;;;2.80;;
74233;SDS011;62591;55.764;37.718;2023-04-06T09:19:30;8.50;;;2.40;;
74233;SDS011;62591;55.764;37.718;2023-04-06T09:22:02;11.50;;;2.58;;
74233;SDS011;62591;55.764;37.718;2023-04-06T09:24:41;7.90;;;2.78;;
74233;SDS011;62591;55.764;37.718;2023-04-06T09:27:10;7.10;;;2.47;;
74233;SDS011;62591;55.764;37.718;2023-04-06T09:29:39;12.18;;;3.03;;
74233;SDS011;62591;55.764;37.718;2023-04-06T09:32:10;4.35;;;2.75;;
74233;SDS011;62591;55.764;37.718;2023-04-06T09:34:43;8.23;;;2.70;;
74233;SDS011;62591;55.764;37.718;2023-04-06T09:37:17;5.30;;;2.40;;
74233;SDS011;62591;55.764;37.718;2023-04-06T09:39:46;10.05;;;2.22;;
74233;SDS011;62591;55.764;37.718;2023-04-06T09:42:23;7.30;;;2.47;;
74233;SDS011;62591;55.764;37.718;2023-04-06T09:44:52;13.60;;;2.58;;
74233;SDS011;62591;55.764;37.718;2023-04-06T09:47:22;11.07;;;2.60;;
74233;SDS011;62591;55.764;37.718;2023-04-06T09:49:56;5.45;;;2.15;;
74233;SDS011;62591;55.764;37.718;2023-04-06T09:52:27;12.82;;;2.80;;
74233;SDS011;62591;55.764;37.718;2023-04-06T09:55:02;7.30;;;2.25;;
74233;SDS011;62591;55.764;37.718;2023-04-06T09:57:32;10.80;;;3.13;;
74233;SDS011;62591;55.764;37.718;2023-04-06T10:00:06;8.50;;;2.60;;
74233;SDS011;62591;55.764;37.718;2023-04-06T10:02:41;14.93;;;3.28;;
74233;SDS011;62591;55.764;37.718;2023-04-06T10:05:16;9.60;;;2.67;;
74233;SDS011;62591;55.764;37.718;2023-04-06T10:07:48;8.65;;;2.70;;
74233;SDS011;62591;55.764;37.718;2023-04-06T10:10:26;6.78;;;2.85;;
74233;SDS011;62591;55.764;37.718;2023-04-06T10:12:56;10.52;;;3.25;;
74233;SDS011;62591;55.764;37.718;2023-04-06T10:15:25;14.40;;;3.08;;
74233;SDS011;62591;55.764;37.718;2023-04-06T10:17:57;11.43;;;2.70;;
74233;SDS011;62591;55.764;37.718;2023-04-06T10:20:27;14.82;;;3.80;;
74233;SDS011;62591;55.764;37.718;2023-04-06T10:25:34;18.13;;;3.63;;
74233;SDS011;62591;55.764;37.718;2023-04-06T10:28:05;9.40;;;3.38;;
74233;SDS011;62591;55.764;37.718;2023-04-06T10:30:34;8.23;;;2.30;;
74233;SDS011;62591;55.764;37.718;2023-04-06T10:33:14;7.88;;;2.70;;
74233;SDS011;62591;55.764;37.718;2023-04-06T10:35:43;6.43;;;2.70;;
74233;SDS011;62591;55.764;37.718;2023-04-06T10:38:12;8.73;;;3.00;;
74233;SDS011;62591;55.764;37.718;2023-04-06T10:40:41;9.00;;;3.08;;
74233;SDS011;62591;55.764;37.718;2023-04-06T10:43:12;18.20;;;3.72;;
74233;SDS011;62591;55.764;37.718;2023-04-06T10:45:41;8.88;;;3.35;;
74233;SDS011;62591;55.764;37.718;2023-04-06T10:48:15;8.13;;;2.20;;
74233;SDS011;62591;55.764;37.718;2023-04-06T10:50:44;14.20;;;2.83;;
74233;SDS011;62591;55.764;37.718;2023-04-06T10:53:20;6.55;;;2.35;;
74233;SDS011;62591;55.764;37.718;2023-04-06T10:55:50;6.13;;;2.80;;
74233;SDS011;62591;55.764;37.718;2023-04-06T10:58:23;9.13;;;3.67;;
74233;SDS011;62591;55.764;37.718;2023-04-06T11:00:53;7.55;;;2.35;;
74233;SDS011;62591;55.764;37.718;2023-04-06T11:03:24;7.13;;;2.92;;
74233;SDS011;62591;55.764;37.718;2023-04-06T11:05:54;5.55;;;2.60;;
74233;SDS011;62591;55.764;37.718;2023-04-06T11:08:23;9.88;;;2.95;;
74233;SDS011;62591;55.764;37.718;2023-04-06T11:11:03;11.18;;;3.40;;
74233;SDS011;62591;55.764;37.718;2023-04-06T11:13:40;12.65;;;2.80;;
74233;SDS011;62591;55.764;37.718;2023-04-06T11:16:12;8.15;;;2.20;;
74233;SDS011;62591;55.764;37.718;2023-04-06T11:18:53;9.10;;;2.50;;
74233;SDS011;62591;55.764;37.718;2023-04-06T11:21:33;17.35;;;3.05;;
74233;SDS011;62591;55.764;37.718;2023-04-06T11:24:04;11.77;;;3.30;;
74233;SDS011;62591;55.764;37.718;2023-04-06T11:26:37;6.82;;;2.40;;
74233;SDS011;62591;55.764;37.718;2023-04-06T11:29:06;5.43;;;2.13;;
74233;SDS011;62591;55.764;37.718;2023-04-06T11:31:39;9.52;;;2.63;;
74233;SDS011;62591;55.764;37.718;2023-04-06T11:34:15;8.52;;;2.33;;
74233;SDS011;62591;55.764;37.718;2023-04-06T11:36:45;7.10;;;2.72;;
74233;SDS011;62591;55.764;37.718;2023-04-06T11:39:17;10.95;;;2.67;;
74233;SDS011;62591;55.764;37.718;2023-04-06T11:41:50;9.90;;;2.60;;
74233;SDS011;62591;55.764;37.718;2023-04-06T11:44:31;7.28;;;2.30;;
74233;SDS011;62591;55.764;37.718;2023-04-06T11:47:03;11.43;;;3.10;;
74233;SDS011;62591;55.764;37.718;2023-04-06T11:49:36;10.63;;;2.80;;
74233;SDS011;62591;55.764;37.718;2023-04-06T11:52:14;5.15;;;2.20;;
74233;SDS011;62591;55.764;37.718;2023-04-06T11:54:43;15.40;;;3.10;;
74233;SDS011;62591;55.764;37.718;2023-04-06T11:57:14;7.95;;;3.28;;
74233;SDS011;62591;55.764;37.718;2023-04-06T11:59:43;6.05;;;2.50;;
74233;SDS011;62591;55.764;37.718;2023-04-06T12:02:12;8.93;;;2.40;;
74233;SDS011;62591;55.764;37.718;2023-04-06T12:04:43;7.68;;;2.50;;
74233;SDS011;62591;55.764;37.718;2023-04-06T12:07:11;23.80;;;3.42;;
74233;SDS011;62591;55.764;37.718;2023-04-06T12:09:40;6.70;;;2.90;;
74233;SDS011;62591;55.764;37.718;2023-04-06T12:12:09;12.60;;;3.33;;
74233;SDS011;62591;55.764;37.718;2023-04-06T12:14:38;10.98;;;2.88;;
74233;SDS011;62591;55.764;37.718;2023-04-06T12:17:06;10.68;;;2.67;;
74233;SDS011;62591;55.764;37.718;2023-04-06T12:19:35;4.97;;;2.22;;
74233;SDS011;62591;55.764;37.718;2023-04-06T12:22:05;7.18;;;3.28;;
74233;SDS011;62591;55.764;37.718;2023-04-06T12:24:33;7.30;;;2.50;;
74233;SDS011;62591;55.764;37.718;2023-04-06T12:27:02;4.35;;;2.10;;
74233;SDS011;62591;55.764;37.718;2023-04-06T12:29:36;11.23;;;2.63;;
74233;SDS011;62591;55.764;37.718;2023-04-06T12:32:05;10.80;;;2.85;;
74233;SDS011;62591;55.764;37.718;2023-04-06T12:34:33;8.13;;;2.70;;
74233;SDS011;62591;55.764;37.718;2023-04-06T12:37:02;7.47;;;2.33;;
74233;SDS011;62591;55.764;37.718;2023-04-06T12:39:33;10.45;;;2.50;;
74233;SDS011;62591;55.764;37.718;2023-04-06T12:42:01;8.43;;;2.40;;
74233;SDS011;62591;55.764;37.718;2023-04-06T12:44:31;10.30;;;2.70;;
74233;SDS011;62591;55.764;37.718;2023-04-06T12:47:00;10.40;;;4.25;;
74233;SDS011;62591;55.764;37.718;2023-04-06T12:49:29;8.63;;;3.00;;
74233;SDS011;62591;55.764;37.718;2023-04-06T12:51:58;11.88;;;2.10;;
74233;SDS011;62591;55.764;37.718;2023-04-06T12:54:27;4.05;;;2.03;;
74233;SDS011;62591;55.764;37.718;2023-04-06T12:56:57;4.97;;;2.00;;
74233;SDS011;62591;55.764;37.718;2023-04-06T12:59:25;4.57;;;2.03;;
74233;SDS011;62591;55.764;37.718;2023-04-06T13:01:57;14.50;;;2.50;;
74233;SDS011;62591;55.764;37.718;2023-04-06T13:04:26;8.60;;;2.45;;
74233;SDS011;62591;55.764;37.718;2023-04-06T13:06:55;6.38;;;2.20;;
74233;SDS011;62591;55.764;37.718;2023-04-06T13:09:24;9.48;;;2.25;;
74233;SDS011;62591;55.764;37.718;2023-04-06T13:11:52;13.88;;;2.50;;
74233;SDS011;62591;55.764;37.718;2023-04-06T13:14:22;7.00;;;2.40;;
74233;SDS011;62591;55.764;37.718;2023-04-06T13:16:51;5.05;;;2.03;;
74233;SDS011;62591;55.764;37.718;2023-04-06T13:19:19;7.53;;;3.72;;
74233;SDS011;62591;55.764;37.718;2023-04-06T13:21:48;5.30;;;2.08;;
74233;SDS011;62591;55.764;37.718;2023-04-06T13:24:16;4.28;;;2.00;;
74233;SDS011;62591;55.764;37.718;2023-04-06T13:26:46;11.25;;;2.67;;
74233;SDS011;62591;55.764;37.718;2023-04-06T13:29:14;8.73;;;2.30;;
74233;SDS011;62591;55.764;37.718;2023-04-06T13:31:44;11.02;;;2.97;;
74233;SDS011;62591;55.764;37.718;2023-04-06T13:34:13;9.13;;;2.40;;
74233;SDS011;62591;55.764;37.718;2023-04-06T13:36:42;6.10;;;1.88;;
74233;SDS011;62591;55.764;37.718;2023-04-06T13:39:11;4.38;;;2.03;;
74233;SDS011;62591;55.764;37.718;2023-04-06T13:41:39;3.55;;;2.00;;
74233;SDS011;62591;55.764;37.718;2023-04-06T13:44:08;3.97;;;1.73;;
74233;SDS011;62591;55.764;37.718;2023-04-06T13:46:36;2.97;;;1.90;;
74233;SDS011;62591;55.764;37.718;2023-04-06T13:49:06;4.40;;;1.92;;
74233;SDS011;62591;55.764;37.718;2023-04-06T13:51:35;3.33;;;1.85;;
74233;SDS011;62591;55.764;37.718;2023-04-06T13:54:03;8.25;;;2.15;;
74233;SDS011;62591;55.764;37.718;2023-04-06T13:56:32;6.13;;;1.65;;
74233;SDS011;62591;55.764;37.718;2023-04-06T13:59:02;6.88;;;1.70;;
74233;SDS011;62591;55.764;37.718;2023-04-06T14:01:31;3.45;;;1.42;;
74233;SDS011;62591;55.764;37.718;2023-04-06T14:03:59;7.63;;;1.63;;
74233;SDS011;62591;55.764;37.718;2023-04-06T14:06:29;5.65;;;1.80;;
74233;SDS011;62591;55.764;37.718;2023-04-06T14:08:58;6.45;;;1.80;;
74233;SDS011;62591;55.764;37.718;2023-04-06T14:11:26;6.53;;;1.77;;
74233;SDS011;62591;55.764;37.718;2023-04-06T14:13:55;3.47;;;1.73;;
74233;SDS011;62591;55.764;37.718;2023-04-06T14:16:24;7.28;;;1.75;;
74233;SDS011;62591;55.764;37.718;2023-04-06T14:18:53;11.98;;;2.08;;
74233;SDS011;62591;55.764;37.718;2023-04-06T14:21:21;4.40;;;1.77;;
74233;SDS011;62591;55.764;37.718;2023-04-06T14:23:51;9.68;;;1.50;;
74233;SDS011;62591;55.764;37.718;2023-04-06T14:26:22;3.90;;;1.67;;
74233;SDS011;62591;55.764;37.718;2023-04-06T14:28:51;14.10;;;1.90;;
74233;SDS011;62591;55.764;37.718;2023-04-06T14:31:19;6.75;;;1.90;;
74233;SDS011;62591;55.764;37.718;2023-04-06T14:33:48;10.00;;;1.90;;
74233;SDS011;62591;55.764;37.718;2023-04-06T14:36:17;4.90;;;1.50;;
74233;SDS011;62591;55.764;37.718;2023-04-06T14:38:45;10.32;;;1.65;;
74233;SDS011;62591;55.764;37.718;2023-04-06T14:41:16;4.75;;;1.38;;
74233;SDS011;62591;55.764;37.718;2023-04-06T14:43:45;5.30;;;1.55;;
74233;SDS011;62591;55.764;37.718;2023-04-06T14:46:14;8.35;;;1.88;;
74233;SDS011;62591;55.764;37.718;2023-04-06T14:48:43;10.57;;;1.98;;
74233;SDS011;62591;55.764;37.718;2023-04-06T14:51:11;11.65;;;1.90;;
74233;SDS011;62591;55.764;37.718;2023-04-06T14:53:40;13.45;;;1.85;;
74233;SDS011;62591;55.764;37.718;2023-04-06T14:56:09;7.80;;;1.60;;
74233;SDS011;62591;55.764;37.718;2023-04-06T14:58:39;5.93;;;1.50;;
74233;SDS011;62591;55.764;37.718;2023-04-06T15:01:07;5.30;;;1.50;;